Terminal Aerodrome Forecast
Issued by NWS

Home | Current Version | Previous Version | Graphics & Text | Print | Product List | Glossary On
Versions: 1 2 3 4 5 6 7 8 9 10 11 12 13 14 15
000
FTUS43 KICT 201058 AAB
TAFCNU
TAF AMD
KCNU 201058Z 2011/2106 18010KT 2SM -DZ BR OVC006
     FM201400 26013KT P6SM OVC015
     FM201700 29017KT P6SM BKN018
     FM202000 29017KT P6SM BKN035=

USA.gov is the U.S. government's official web portal to all federal, state and local government web resources and services.